createdAt,value
2023-03-12T00:00:43.652Z,89.97
2023-03-12T00:03:12.507Z,90.18
2023-03-12T00:05:40.173Z,90.20
2023-03-12T00:08:07.697Z,90.54
2023-03-12T00:10:35.681Z,90.27
2023-03-12T00:13:03.400Z,90.08
2023-03-12T00:15:30.692Z,89.60
2023-03-12T00:17:57.972Z,89.35
2023-03-12T00:20:26.748Z,89.35
2023-03-12T00:22:54.008Z,88.80
2023-03-12T00:25:21.965Z,88.66
2023-03-12T00:27:49.301Z,88.46
2023-03-12T00:30:16.924Z,88.26
2023-03-12T00:32:44.974Z,88.06
2023-03-12T00:35:12.277Z,87.46
2023-03-12T00:37:40.871Z,86.69
2023-03-12T00:40:10.856Z,86.35
2023-03-12T00:42:38.164Z,86.00
2023-03-12T00:45:05.813Z,85.73
2023-03-12T00:47:33.110Z,85.22
2023-03-12T00:50:00.381Z,84.80
2023-03-12T00:52:27.675Z,83.60
2023-03-12T00:54:58.290Z,83.48
2023-03-12T00:57:25.686Z,83.48
2023-03-12T00:59:52.967Z,83.32
2023-03-12T01:02:20.228Z,82.90
2023-03-12T01:04:47.508Z,83.14
2023-03-12T01:07:14.848Z,83.26
2023-03-12T01:09:42.137Z,83.10
2023-03-12T01:12:10.846Z,82.13
2023-03-12T01:14:38.104Z,82.03
2023-03-12T01:17:05.400Z,81.96
2023-03-12T01:19:32.664Z,82.05
2023-03-12T01:22:00.030Z,82.20
2023-03-12T01:24:27.280Z,82.21
2023-03-12T01:26:54.788Z,82.58
2023-03-12T01:29:23.445Z,82.50
2023-03-12T01:31:52.124Z,82.55
2023-03-12T01:34:19.618Z,82.64
2023-03-12T01:36:47.763Z,82.99
2023-03-12T01:39:15.338Z,82.99
2023-03-12T01:41:42.583Z,83.08
2023-03-12T01:44:13.832Z,82.92
2023-03-12T01:46:43.681Z,82.70
2023-03-12T01:49:12.516Z,82.44
2023-03-12T01:51:41.035Z,82.04
2023-03-12T01:54:11.098Z,82.67
2023-03-12T01:56:38.700Z,82.67
2023-03-12T01:59:09.197Z,82.40
2023-03-12T02:01:36.477Z,82.59
2023-03-12T02:04:05.330Z,83.30
2023-03-12T02:06:35.375Z,83.28
2023-03-12T02:09:03.774Z,83.46
2023-03-12T02:11:31.099Z,83.12
2023-03-12T02:13:58.414Z,83.11
2023-03-12T02:16:25.720Z,83.66
2023-03-12T02:18:54.327Z,83.61
2023-03-12T02:21:23.939Z,83.68
2023-03-12T02:23:55.900Z,83.95
2023-03-12T02:26:25.406Z,84.09
2023-03-12T02:28:54.318Z,84.34
2023-03-12T02:31:23.600Z,83.98
2023-03-12T02:33:52.758Z,84.30
2023-03-12T02:36:20.069Z,83.56
2023-03-12T02:38:48.106Z,83.74
2023-03-12T02:41:17.575Z,83.57
2023-03-12T02:43:48.269Z,84.64
2023-03-12T02:46:16.156Z,84.47
2023-03-12T02:48:43.470Z,84.46
2023-03-12T02:51:11.073Z,84.58
2023-03-12T02:53:38.333Z,83.72
2023-03-12T02:56:05.988Z,83.63
2023-03-12T02:58:33.581Z,83.60
2023-03-12T03:01:02.201Z,83.15
2023-03-12T03:03:29.522Z,83.71
2023-03-12T03:05:56.782Z,83.34
2023-03-12T03:08:24.049Z,83.50
2023-03-12T03:10:51.733Z,83.26
2023-03-12T03:13:18.995Z,83.81
2023-03-12T03:15:46.331Z,84.23
2023-03-12T03:18:14.979Z,84.06
2023-03-12T03:20:44.260Z,83.61
2023-03-12T03:23:11.942Z,83.63
2023-03-12T03:25:39.221Z,83.16
2023-03-12T03:28:06.492Z,83.01
2023-03-12T03:30:33.770Z,82.61
2023-03-12T03:33:01.041Z,82.81
2023-03-12T03:35:29.668Z,83.05
2023-03-12T03:37:56.946Z,83.53
2023-03-12T03:40:24.194Z,84.03
2023-03-12T03:42:51.451Z,83.96
2023-03-12T03:45:19.657Z,84.07
2023-03-12T03:47:47.079Z,84.38
2023-03-12T03:50:14.340Z,85.03
2023-03-12T03:52:42.938Z,84.85
2023-03-12T03:55:10.745Z,84.78
2023-03-12T03:57:38.072Z,84.38
2023-03-12T04:00:09.374Z,84.79
2023-03-12T04:02:37.011Z,84.51
2023-03-12T04:05:04.370Z,84.53
2023-03-12T04:07:31.898Z,84.63
2023-03-12T04:10:00.599Z,84.12
2023-03-12T04:12:28.634Z,84.65
2023-03-12T04:14:56.042Z,83.10
2023-03-12T04:17:23.640Z,83.04
2023-03-12T04:19:51.014Z,83.09
2023-03-12T04:22:18.301Z,83.11
2023-03-12T04:24:46.335Z,83.12
2023-03-12T04:27:15.003Z,82.66
2023-03-12T04:29:42.374Z,83.99
2023-03-12T04:32:09.683Z,83.82
2023-03-12T04:34:37.289Z,83.28
2023-03-12T04:37:04.652Z,83.36
2023-03-12T04:39:31.924Z,83.27
2023-03-12T04:41:59.183Z,83.39
2023-03-12T04:44:27.760Z,83.50
2023-03-12T04:46:55.061Z,83.52
2023-03-12T04:49:22.498Z,82.94
2023-03-12T04:51:49.759Z,82.88
2023-03-12T04:54:17.073Z,82.50
2023-03-12T04:56:44.368Z,82.36
2023-03-12T04:59:11.644Z,82.28
2023-03-12T05:01:40.241Z,83.78
2023-03-12T05:04:07.645Z,83.91
2023-03-12T05:06:35.043Z,82.69
2023-03-12T05:09:02.629Z,82.92
2023-03-12T05:11:30.133Z,82.71
2023-03-12T05:13:57.627Z,82.10
2023-03-12T05:16:24.944Z,82.16
2023-03-12T05:18:53.557Z,81.84
2023-03-12T05:21:21.334Z,82.81
2023-03-12T05:23:49.281Z,82.63
2023-03-12T05:26:17.364Z,82.58
2023-03-12T05:28:45.134Z,81.10
2023-03-12T05:31:12.932Z,81.60
2023-03-12T05:33:40.300Z,81.91
2023-03-12T05:36:09.380Z,82.34
2023-03-12T05:38:36.703Z,82.73
2023-03-12T05:41:04.151Z,83.04
2023-03-12T05:43:31.461Z,82.82
2023-03-12T05:45:59.961Z,83.30
2023-03-12T05:48:27.446Z,83.33
2023-03-12T05:50:54.722Z,83.35
2023-03-12T05:53:24.905Z,83.30
2023-03-12T05:55:52.178Z,83.64
2023-03-12T05:58:19.645Z,83.69
2023-03-12T06:00:46.922Z,83.86
2023-03-12T06:03:14.251Z,83.48
2023-03-12T06:05:41.628Z,83.47
2023-03-12T06:08:08.891Z,83.29
2023-03-12T06:10:38.174Z,83.45
2023-03-12T06:13:05.450Z,83.29
2023-03-12T06:15:32.826Z,82.31
2023-03-12T06:18:00.146Z,82.66
2023-03-12T06:20:27.494Z,82.65
2023-03-12T06:22:54.739Z,82.54
2023-03-12T06:25:22.147Z,82.44
2023-03-12T06:27:50.759Z,83.13
2023-03-12T06:30:18.251Z,82.17
2023-03-12T06:32:45.649Z,81.51
2023-03-12T06:35:13.051Z,80.95
2023-03-12T06:37:40.304Z,80.74
2023-03-12T06:40:10.703Z,80.19
2023-03-12T06:42:38.152Z,78.83
2023-03-12T06:45:07.601Z,76.53
2023-03-12T06:47:34.867Z,75.12
2023-03-12T06:50:02.157Z,75.44
2023-03-12T06:52:29.728Z,75.90
2023-03-12T06:54:56.977Z,75.50
2023-03-12T06:57:24.225Z,74.96
2023-03-12T06:59:51.575Z,74.07
2023-03-12T07:02:20.188Z,73.76
2023-03-12T07:04:47.606Z,73.12
2023-03-12T07:07:16.932Z,72.46
2023-03-12T07:09:44.194Z,71.89
2023-03-12T07:12:11.464Z,71.10
2023-03-12T07:14:38.705Z,70.92
2023-03-12T07:17:06.206Z,68.38
2023-03-12T07:19:34.780Z,68.71
2023-03-12T07:22:02.278Z,67.97
2023-03-12T07:24:29.540Z,67.52
2023-03-12T07:26:56.824Z,66.00
2023-03-12T07:29:24.087Z,65.28
2023-03-12T07:31:51.393Z,65.17
2023-03-12T07:34:18.803Z,66.28
2023-03-12T07:36:47.549Z,66.72
2023-03-12T07:39:14.913Z,67.41
2023-03-12T07:41:42.192Z,68.17
2023-03-12T07:44:09.627Z,68.15
2023-03-12T07:46:37.103Z,66.69
2023-03-12T07:49:04.430Z,66.54
2023-03-12T07:51:31.733Z,65.61
2023-03-12T07:54:00.324Z,65.22
2023-03-12T07:56:27.600Z,64.20
2023-03-12T07:58:55.475Z,63.41
2023-03-12T08:01:22.917Z,63.12
2023-03-12T08:03:50.419Z,64.09
2023-03-12T08:06:19.860Z,63.92
2023-03-12T08:08:47.952Z,63.18
2023-03-12T08:11:16.839Z,63.19
2023-03-12T08:13:44.415Z,62.74
2023-03-12T08:16:11.749Z,62.25
2023-03-12T08:18:39.175Z,62.65
2023-03-12T08:21:06.716Z,62.88
2023-03-12T08:23:34.145Z,63.27
2023-03-12T08:26:01.483Z,63.44
2023-03-12T08:28:30.814Z,63.45
2023-03-12T08:30:59.797Z,62.13
2023-03-12T08:33:27.109Z,60.97
2023-03-12T08:35:54.558Z,60.58
2023-03-12T08:38:21.850Z,60.61
2023-03-12T08:40:55.152Z,59.46
2023-03-12T08:43:22.445Z,59.64
2023-03-12T08:45:54.966Z,58.53
2023-03-12T08:48:22.277Z,57.49
2023-03-12T08:50:49.626Z,56.99
2023-03-12T08:53:17.401Z,56.08
2023-03-12T08:55:45.680Z,56.45
2023-03-12T08:58:12.957Z,56.64
2023-03-12T09:00:40.312Z,57.30
2023-03-12T09:03:12.371Z,56.79
2023-03-12T09:05:39.684Z,56.59
2023-03-12T09:08:06.973Z,56.44
2023-03-12T09:10:34.449Z,55.71
2023-03-12T09:13:01.745Z,56.20
2023-03-12T09:15:29.136Z,54.74
2023-03-12T09:17:56.725Z,52.24
2023-03-12T09:20:26.732Z,51.03
2023-03-12T09:22:54.038Z,49.77
2023-03-12T09:25:23.205Z,50.06
2023-03-12T09:27:50.529Z,50.64
2023-03-12T09:30:18.799Z,49.75
2023-03-12T09:32:46.502Z,50.04
2023-03-12T09:35:17.937Z,49.65
2023-03-12T09:37:54.098Z,49.18
2023-03-12T09:40:23.179Z,49.17
2023-03-12T09:42:53.147Z,48.47
2023-03-12T09:45:25.010Z,49.64
2023-03-12T09:47:53.857Z,48.88
2023-03-12T09:50:23.657Z,50.46
2023-03-12T09:52:54.834Z,46.16
2023-03-12T09:55:24.225Z,47.13
2023-03-12T09:57:52.724Z,47.83
2023-03-12T10:00:21.465Z,46.06
2023-03-12T10:02:54.089Z,46.22
2023-03-12T10:05:25.266Z,46.24
2023-03-12T10:07:58.597Z,46.14
2023-03-12T10:10:30.707Z,45.06
2023-03-12T10:13:08.311Z,44.02
2023-03-12T10:15:41.052Z,43.20
2023-03-12T10:18:13.941Z,45.89
2023-03-12T10:20:47.924Z,45.63
2023-03-12T10:23:23.158Z,43.66
2023-03-12T10:25:54.318Z,43.40
2023-03-12T10:28:23.484Z,43.87
2023-03-12T10:30:52.741Z,42.94
2023-03-12T10:33:22.631Z,41.73
2023-03-12T10:35:50.937Z,41.87
2023-03-12T10:38:25.299Z,40.60
2023-03-12T10:40:52.586Z,40.26
2023-03-12T10:43:19.851Z,40.44
2023-03-12T10:45:53.152Z,40.57
2023-03-12T10:48:21.739Z,43.11
2023-03-12T10:51:01.110Z,41.28
2023-03-12T10:53:35.638Z,41.39
2023-03-12T10:56:05.114Z,40.70
2023-03-12T10:58:33.733Z,42.03
2023-03-12T11:01:01.964Z,39.84
2023-03-12T11:03:30.105Z,40.60
2023-03-12T11:06:02.675Z,40.98
2023-03-12T11:08:30.884Z,41.12
2023-03-12T11:11:00.404Z,41.71
2023-03-12T11:13:29.094Z,42.33
2023-03-12T11:15:57.127Z,42.34
2023-03-12T11:18:26.433Z,43.78
2023-03-12T11:20:56.339Z,41.04
2023-03-12T11:23:25.111Z,41.05
2023-03-12T11:25:56.538Z,40.58
2023-03-12T11:28:29.001Z,41.19
2023-03-12T11:30:58.110Z,40.68
2023-03-12T11:33:25.753Z,41.17
2023-03-12T11:36:01.962Z,40.63
2023-03-12T11:38:31.945Z,43.17
2023-03-12T11:41:06.503Z,42.13
2023-03-12T11:43:43.874Z,41.47
2023-03-12T11:46:21.559Z,40.56
2023-03-12T11:48:55.241Z,40.30
2023-03-12T11:51:28.527Z,40.31
2023-03-12T11:54:15.244Z,39.34
2023-03-12T11:56:45.923Z,39.15
2023-03-12T11:59:37.197Z,38.38
2023-03-12T12:02:15.354Z,40.03
2023-03-12T12:05:06.617Z,40.32
2023-03-12T12:07:40.276Z,39.86
2023-03-12T12:10:14.708Z,39.59
2023-03-12T12:12:52.600Z,41.69
2023-03-12T12:15:24.798Z,39.69
2023-03-12T12:17:57.958Z,39.99
2023-03-12T12:20:29.748Z,39.81
2023-03-12T12:23:03.065Z,40.25
2023-03-12T12:25:37.487Z,39.81
2023-03-12T12:28:18.220Z,40.35
2023-03-12T12:30:52.820Z,40.43
2023-03-12T12:33:28.399Z,40.20
2023-03-12T12:35:56.351Z,40.11
2023-03-12T12:38:30.210Z,40.88
2023-03-12T12:41:00.874Z,40.82
2023-03-12T12:43:29.320Z,42.40
2023-03-12T12:45:59.163Z,41.89
2023-03-12T12:48:29.638Z,42.78
2023-03-12T12:50:59.570Z,42.85
2023-03-12T12:53:28.985Z,43.98
2023-03-12T12:56:02.072Z,44.24
2023-03-12T12:58:37.656Z,43.92
2023-03-12T13:01:05.158Z,44.98
2023-03-12T13:03:33.913Z,44.77
2023-03-12T13:06:02.827Z,44.44
2023-03-12T13:08:34.672Z,44.18
2023-03-12T13:11:17.205Z,45.31
2023-03-12T13:13:49.392Z,45.09
2023-03-12T13:16:18.105Z,45.07
2023-03-12T13:18:57.860Z,45.49
2023-03-12T13:21:29.459Z,46.16
2023-03-12T13:24:04.002Z,46.59
2023-03-12T13:26:32.693Z,45.62
2023-03-12T13:29:13.069Z,46.09
2023-03-12T13:31:41.507Z,46.17
2023-03-12T13:34:30.417Z,45.34
2023-03-12T13:36:59.515Z,45.94
2023-03-12T13:39:31.905Z,44.45
2023-03-12T13:42:00.070Z,44.99
2023-03-12T13:44:33.016Z,45.58
2023-03-12T13:47:01.132Z,45.75
2023-03-12T13:49:35.230Z,44.34
2023-03-12T13:52:09.923Z,43.84
2023-03-12T13:54:42.535Z,44.00
2023-03-12T13:57:14.117Z,43.57
2023-03-12T13:59:45.339Z,44.70
2023-03-12T14:02:21.565Z,44.70
2023-03-12T14:04:50.287Z,44.19
2023-03-12T14:07:29.952Z,44.35
2023-03-12T14:10:05.371Z,44.91
2023-03-12T14:12:36.409Z,45.78
2023-03-12T14:15:16.883Z,46.05
2023-03-12T14:17:45.302Z,47.60
2023-03-12T14:20:17.402Z,48.57
2023-03-12T14:22:46.849Z,49.16
2023-03-12T14:25:15.797Z,48.34
2023-03-12T14:27:45.976Z,48.81
2023-03-12T14:30:17.288Z,48.74
2023-03-12T14:32:45.205Z,50.52
2023-03-12T14:35:18.758Z,51.87
2023-03-12T14:37:50.059Z,53.56
2023-03-12T14:40:22.959Z,55.06
2023-03-12T14:42:50.274Z,54.40
2023-03-12T14:45:18.736Z,56.12
2023-03-12T14:47:47.110Z,60.08
2023-03-12T14:50:19.702Z,62.57
2023-03-12T14:52:47.001Z,62.75
2023-03-12T14:55:17.939Z,64.07
2023-03-12T14:57:45.504Z,63.31
2023-03-12T15:00:24.566Z,63.26
2023-03-12T15:02:53.560Z,65.13
2023-03-12T15:05:22.433Z,66.84
2023-03-12T15:07:51.190Z,69.77
2023-03-12T15:10:21.108Z,71.53
2023-03-12T15:12:49.064Z,70.76
2023-03-12T15:15:26.813Z,72.62
2023-03-12T15:17:57.539Z,71.94
2023-03-12T15:20:26.673Z,75.39
2023-03-12T15:22:54.312Z,73.48
2023-03-12T15:25:25.526Z,73.47
2023-03-12T15:28:03.247Z,73.43
2023-03-12T15:30:30.728Z,73.76
2023-03-12T15:33:07.886Z,72.35
2023-03-12T15:35:37.166Z,73.36
2023-03-12T15:38:04.987Z,72.46
2023-03-12T15:40:32.429Z,72.88
2023-03-12T15:43:03.212Z,72.33
2023-03-12T15:45:36.097Z,72.07
2023-03-12T15:48:04.930Z,73.31
2023-03-12T15:50:34.791Z,73.42
2023-03-12T15:53:05.904Z,73.57
2023-03-12T15:55:33.455Z,73.70
2023-03-12T15:58:00.727Z,72.69
2023-03-12T16:00:29.815Z,72.35
2023-03-12T16:02:58.261Z,72.39
2023-03-12T16:05:27.404Z,72.11
2023-03-12T16:07:54.727Z,72.43
2023-03-12T16:10:25.514Z,73.28
2023-03-12T16:12:53.600Z,72.88
2023-03-12T16:15:23.554Z,71.91
2023-03-12T16:17:50.836Z,72.20
2023-03-12T16:20:18.727Z,71.56
2023-03-12T16:22:46.040Z,71.75
2023-03-12T16:25:14.050Z,71.32
2023-03-12T16:27:46.555Z,71.89
2023-03-12T16:30:16.118Z,72.28
2023-03-12T16:32:43.460Z,72.04
2023-03-12T16:35:12.718Z,72.22
2023-03-12T16:37:39.988Z,71.92
2023-03-12T16:40:08.032Z,72.14
2023-03-12T16:42:35.687Z,71.51
2023-03-12T16:45:04.896Z,72.28
2023-03-12T16:47:32.555Z,72.38
2023-03-12T16:50:00.029Z,72.71
2023-03-12T16:52:27.666Z,73.07
2023-03-12T16:54:54.945Z,73.16
2023-03-12T16:57:26.471Z,72.80
2023-03-12T16:59:54.444Z,72.39
2023-03-12T17:02:23.156Z,73.16
2023-03-12T17:04:51.077Z,73.46
2023-03-12T17:07:18.652Z,72.71
2023-03-12T17:09:45.924Z,72.23
2023-03-12T17:12:19.272Z,72.96
2023-03-12T17:14:46.572Z,73.44
2023-03-12T17:17:14.131Z,73.51
2023-03-12T17:19:42.727Z,73.26
2023-03-12T17:22:10.077Z,73.75
2023-03-12T17:24:39.177Z,73.98
2023-03-12T17:27:06.565Z,74.29
2023-03-12T17:29:33.892Z,74.77
2023-03-12T17:32:04.199Z,75.15
2023-03-12T17:34:31.555Z,75.32
2023-03-12T17:37:04.338Z,74.97
2023-03-12T17:39:31.837Z,75.56
2023-03-12T17:41:59.081Z,75.86
2023-03-12T17:44:29.381Z,76.20
2023-03-12T17:46:59.659Z,76.69
2023-03-12T17:49:27.433Z,77.37
2023-03-12T17:51:54.730Z,76.62
2023-03-12T17:54:23.370Z,77.31
2023-03-12T17:56:50.685Z,77.21
2023-03-12T17:59:18.144Z,77.45
2023-03-12T18:01:45.568Z,78.12
2023-03-12T18:04:12.881Z,78.45
2023-03-12T18:06:40.177Z,78.81
2023-03-12T18:09:07.595Z,78.14
2023-03-12T18:11:36.198Z,77.92
2023-03-12T18:14:03.502Z,78.54
2023-03-12T18:16:30.901Z,78.36
2023-03-12T18:18:58.356Z,78.55
2023-03-12T18:21:25.907Z,79.38
2023-03-12T18:23:55.780Z,79.06
2023-03-12T18:26:24.688Z,78.47
2023-03-12T18:28:53.848Z,78.49
2023-03-12T18:31:21.133Z,79.31
2023-03-12T18:33:50.463Z,78.92
2023-03-12T18:36:17.886Z,79.93
2023-03-12T18:38:45.457Z,79.63
2023-03-12T18:41:13.643Z,78.78
2023-03-12T18:43:41.765Z,79.09
2023-03-12T18:46:11.324Z,79.05
2023-03-12T18:48:38.660Z,79.92
2023-03-12T18:51:06.123Z,79.75
2023-03-12T18:53:33.927Z,80.82
2023-03-12T18:56:01.277Z,80.09
2023-03-12T18:58:29.180Z,78.82
2023-03-12T19:00:57.975Z,78.79
2023-03-12T19:03:26.910Z,78.42
2023-03-12T19:06:01.409Z,78.76
2023-03-12T19:08:28.767Z,79.00
2023-03-12T19:10:56.256Z,79.45
2023-03-12T19:13:23.659Z,79.87
2023-03-12T19:15:50.942Z,80.36
2023-03-12T19:18:21.450Z,81.66
2023-03-12T19:20:50.034Z,81.19
2023-03-12T19:23:17.363Z,81.68
2023-03-12T19:25:44.683Z,80.72
2023-03-12T19:28:11.953Z,80.73
2023-03-12T19:30:42.456Z,80.31
2023-03-12T19:33:09.865Z,81.30
2023-03-12T19:35:38.569Z,80.56
2023-03-12T19:38:07.230Z,80.94
2023-03-12T19:40:34.908Z,81.31
2023-03-12T19:43:05.451Z,81.05
2023-03-12T19:45:32.737Z,80.69
2023-03-12T19:48:00.103Z,81.02
2023-03-12T19:50:27.442Z,81.12
2023-03-12T19:52:54.763Z,81.00
2023-03-12T19:55:23.382Z,81.78
2023-03-12T19:57:50.689Z,80.41
2023-03-12T20:00:18.443Z,80.74
2023-03-12T20:02:46.483Z,80.56
2023-03-12T20:05:14.282Z,80.81
2023-03-12T20:07:41.587Z,80.79
2023-03-12T20:10:10.699Z,80.75
2023-03-12T20:12:39.827Z,81.78
2023-03-12T20:15:07.708Z,81.31
2023-03-12T20:17:35.005Z,80.89
2023-03-12T20:20:02.315Z,80.63
2023-03-12T20:22:31.001Z,81.13
2023-03-12T20:24:58.245Z,80.59
2023-03-12T20:27:26.588Z,81.27
2023-03-12T20:29:55.231Z,81.54
2023-03-12T20:32:22.552Z,81.35
2023-03-12T20:34:49.875Z,81.94
2023-03-12T20:37:17.958Z,82.11
2023-03-12T20:39:45.248Z,81.96
2023-03-12T20:42:12.511Z,81.43
2023-03-12T20:44:39.859Z,81.45
2023-03-12T20:47:08.485Z,81.50
2023-03-12T20:49:36.045Z,81.44
2023-03-12T20:52:03.522Z,81.66
2023-03-12T20:54:32.454Z,81.33
2023-03-12T20:56:59.721Z,81.36
2023-03-12T20:59:27.013Z,81.74
2023-03-12T21:01:54.284Z,81.94
2023-03-12T21:04:22.879Z,81.31
2023-03-12T21:06:51.616Z,81.38
2023-03-12T21:09:19.056Z,81.19
2023-03-12T21:11:46.327Z,81.02
2023-03-12T21:14:13.637Z,80.56
2023-03-12T21:16:40.906Z,80.35
2023-03-12T21:19:08.227Z,79.46
2023-03-12T21:21:37.900Z,79.64
2023-03-12T21:24:05.499Z,80.23
2023-03-12T21:26:32.830Z,79.94
2023-03-12T21:29:00.127Z,79.80
2023-03-12T21:31:27.632Z,79.81
2023-03-12T21:33:55.335Z,79.33
2023-03-12T21:36:22.669Z,79.56
2023-03-12T21:38:51.691Z,79.44
2023-03-12T21:41:19.395Z,79.69
2023-03-12T21:43:47.055Z,79.72
2023-03-12T22:00:46.342Z,79.08
2023-03-12T22:03:13.587Z,79.11
2023-03-12T22:05:41.171Z,79.01
2023-03-12T22:08:08.431Z,78.92
2023-03-12T22:10:35.690Z,79.21
2023-03-12T22:13:02.931Z,78.38
2023-03-12T22:15:31.332Z,78.48
2023-03-12T22:17:59.912Z,78.76
2023-03-12T22:20:27.158Z,78.79
2023-03-12T22:22:54.403Z,79.12
2023-03-12T22:25:21.667Z,78.98
2023-03-12T22:27:48.937Z,79.06
2023-03-12T22:30:16.369Z,79.15
2023-03-12T22:32:43.755Z,79.24
2023-03-12T22:35:12.365Z,79.51
2023-03-12T22:37:39.641Z,79.96
2023-03-12T22:40:08.443Z,79.63
2023-03-12T22:42:35.747Z,78.92
2023-03-12T22:45:03.674Z,78.81
2023-03-12T22:47:31.002Z,78.87
2023-03-12T22:49:58.418Z,78.41
2023-03-12T22:52:26.997Z,78.42
2023-03-12T22:54:54.597Z,78.54
2023-03-12T22:57:21.826Z,78.08
2023-03-12T22:59:49.090Z,78.05
2023-03-12T23:02:16.411Z,78.33
2023-03-12T23:04:44.366Z,78.56
2023-03-12T23:07:14.525Z,78.12
2023-03-12T23:09:43.865Z,78.30
2023-03-12T23:12:11.151Z,78.27
2023-03-12T23:14:38.408Z,78.25
2023-03-12T23:17:06.142Z,78.04
2023-03-12T23:19:33.528Z,78.92
2023-03-12T23:22:00.864Z,78.98
2023-03-12T23:24:30.196Z,78.42
2023-03-12T23:26:58.784Z,79.02
2023-03-12T23:29:26.059Z,78.87
2023-03-12T23:31:53.373Z,79.06
2023-03-12T23:34:20.698Z,79.21
2023-03-12T23:36:48.161Z,79.79
2023-03-12T23:39:15.454Z,79.02
2023-03-12T23:41:42.709Z,78.63
2023-03-12T23:44:11.307Z,78.73
2023-03-12T23:46:38.548Z,78.66
2023-03-12T23:49:05.808Z,78.80
2023-03-12T23:51:33.872Z,78.86
2023-03-12T23:54:01.806Z,78.83
2023-03-12T23:56:32.892Z,78.69
2023-03-12T23:59:00.256Z,79.10
